TDPD/DOM METAR and TAF weather

Enter ICAO airport designator
Station Type Date Time Source
TDPD METAR 2019/04/25 17:00 UTC NOAA

TDPD 251700Z 11010KT 9999 BKN017 28/23 Q1016


Station Type Date Time Source
TDPD Decoded METAR 2019/04/25 17:00 UTC NOAA

Melville Hall Airport, Dominica (TDPD) 15-32N 061-18W 14M
Apr 25, 2019 - 01:00 PM EDT / 2019.04.25 1700 UTC
Wind: from the ESE (110 degrees) at 12 MPH (10 KT):0
Visibility: greater than 7 mile(s):0
Sky conditions: mostly cloudy
Temperature: 82 F (28 C)
Dew Point: 73 F (23 C)
Relative Humidity: 74%
Pressure (altimeter): 30.00 in. Hg (1016 hPa)
ob: TDPD 251700Z 11010KT 9999 BKN017 28/23 Q1016
cycle: 17

Station Type Date Time Source
TDPD TAF 2019/04/25 18:29 UTC NOAA

TAF TDPD 251700Z 2518/2618 12010KT 9999 SCT016
TEMPO 2606/2612 SHRA BKN014 SCT032

Example: see airport list